Time;durP1;ratioP1;P1;durP2;ratioP2;P2;SDS_P1;SDS_P2;PMS_P1;PMS_P2;Temp;Humidity;BMP_temperature;BMP_pressure;BME280_temperature;BME280_humidity;BME280_pressure;Samples;Min_cycle;Max_cycle;Signal;HPM_P1;HPM_P2
2022/05/20 00:00:06;;;;;;;7.10;4.80;;;;;;100718.98;;;;107794;1271;28464;-33
2022/05/20 00:02:53;;;;;;;8.50;4.80;;;;;;100714.09;;;;107813;1271;28614;-32
2022/05/20 00:05:20;;;;;;;7.80;4.70;;;;;;100711.34;;;;107839;1271;27254;-37
2022/05/20 00:07:47;;;;;;;7.10;4.70;;;;;;100713.34;;;;107855;1271;28650;-33
2022/05/20 00:10:16;;;;;;;8.20;4.70;;;;;;100706.69;;;;107845;1271;29407;-33
2022/05/20 00:12:45;;;;;;;9.20;5.70;;;;;;100706.42;;;;107856;1271;28641;-32
2022/05/20 00:15:17;;;;;;;7.80;4.80;;;;;;100706.38;;;;107873;1271;28629;-33
2022/05/20 00:17:44;;;;;;;7.30;5.00;;;;;;100706.28;;;;107835;1271;30740;-33
2022/05/20 00:20:13;;;;;;;6.90;4.60;;;;;;100706.79;;;;107837;1271;27307;-32
2022/05/20 00:22:40;;;;;;;7.10;4.90;;;;;;100708.96;;;;107854;1271;28642;-32
2022/05/20 00:27:54;;;;;;;8.00;4.70;;;;;;100707.98;;;;107811;1271;26140;-32
2022/05/20 00:30:21;;;;;;;7.90;5.50;;;;;;100700.94;;;;107828;1271;28616;-34
2022/05/20 00:32:48;;;;;;;7.80;5.20;;;;;;100694.05;;;;107851;1273;31051;-32
2022/05/20 00:35:15;;;;;;;7.80;5.10;;;;;;100693.56;;;;107817;1271;30749;-32
2022/05/20 00:37:41;;;;;;;8.00;4.90;;;;;;100695.94;;;;107817;1271;28715;-32
2022/05/20 00:40:13;;;;;;;7.50;5.20;;;;;;100697.55;;;;107743;1274;28714;-32
2022/05/20 00:42:41;;;;;;;7.90;5.20;;;;;;100696.33;;;;107815;1273;28717;-32
2022/05/20 00:45:10;;;;;;;9.10;5.20;;;;;;100696.70;;;;107817;1272;28646;-32
2022/05/20 00:47:37;;;;;;;6.30;4.80;;;;;;100702.80;;;;107830;1271;29717;-32
2022/05/20 00:50:09;;;;;;;8.20;4.90;;;;;;100696.13;;;;107825;1273;28698;-32
2022/05/20 00:52:37;;;;;;;10.60;5.80;;;;;;100695.11;;;;107828;1272;28602;-32
2022/05/20 00:55:11;;;;;;;7.80;5.30;;;;;;100694.88;;;;107809;1273;27346;-32
2022/05/20 00:57:41;;;;;;;;;;;;;;100691.91;;;;107867;1273;28750;-32
2022/05/20 01:00:15;;;;;;;7.10;5.10;;;;;;100686.32;;;;107853;1271;28884;-32
2022/05/20 01:02:42;;;;;;;7.80;5.00;;;;;;100680.47;;;;107845;1272;30683;-32
2022/05/20 01:05:32;;;;;;;8.10;5.50;;;;;;100680.93;;;;107865;1271;28620;-32
2022/05/20 01:07:59;;;;;;;8.30;5.40;;;;;;100678.22;;;;107839;1271;30875;-36
2022/05/20 01:10:26;;;;;;;8.90;5.60;;;;;;100677.34;;;;107817;1273;26177;-32
2022/05/20 01:12:54;;;;;;;6.90;5.00;;;;;;100680.73;;;;107814;1271;29788;-32
2022/05/20 01:15:21;;;;;;;8.00;5.20;;;;;;100678.91;;;;107829;1271;30827;-32
2022/05/20 01:17:54;;;;;;;7.70;5.00;;;;;;100672.31;;;;107765;1273;28567;-32
2022/05/20 01:20:26;;;;;;;8.40;5.30;;;;;;100673.23;;;;107828;1271;26174;-33
2022/05/20 01:22:53;;;;;;;6.90;5.10;;;;;;100670.27;;;;107830;1271;31085;-32
2022/05/20 01:25:23;;;;;;;8.70;5.30;;;;;;100671.67;;;;107825;1271;28654;-32
2022/05/20 01:27:50;;;;;;;7.10;4.70;;;;;;100675.41;;;;107825;1271;28702;-33
2022/05/20 01:30:24;;;;;;;7.00;5.20;;;;;;100670.73;;;;107835;1272;26374;-32
2022/05/20 01:32:51;;;;;;;9.20;4.90;;;;;;100665.72;;;;107828;1272;30804;-31
2022/05/20 01:35:31;;;;;;;8.00;5.00;;;;;;100666.58;;;;107838;1272;28679;-32
2022/05/20 01:37:57;;;;;;;7.40;5.20;;;;;;100670.16;;;;107820;1271;29605;-33
2022/05/20 01:40:27;;;;;;;8.60;5.20;;;;;;100661.10;;;;107793;1271;30813;-32
2022/05/20 01:43:00;;;;;;;7.60;5.30;;;;;;100654.73;;;;107841;1272;30820;-32
2022/05/20 01:45:39;;;;;;;8.30;5.10;;;;;;100653.38;;;;107819;1271;26047;-32
2022/05/20 01:48:18;;;;;;;7.30;5.50;;;;;;100652.80;;;;107802;1271;28694;-32
2022/05/20 01:50:52;;;;;;;8.00;4.90;;;;;;100648.94;;;;107835;1271;28615;-32
2022/05/20 01:53:33;;;;;;;7.30;4.60;;;;;;100642.13;;;;107821;1271;28602;-32
2022/05/20 01:56:16;;;;;;;7.50;4.90;;;;;;100634.99;;;;107841;1272;28680;-32
2022/05/20 01:59:15;;;;;;;8.10;4.90;;;;;;100634.05;;;;107824;1271;28648;-32
2022/05/20 02:02:24;;;;;;;6.60;4.40;;;;;;100629.73;;;;107809;1271;28477;-32
2022/05/20 02:05:08;;;;;;;7.00;4.90;;;;;;100629.59;;;;107732;1273;29099;-33
2022/05/20 02:07:38;;;;;;;7.70;4.90;;;;;;100632.14;;;;107831;1271;27262;-33
2022/05/20 02:10:22;;;;;;;6.20;5.10;;;;;;100637.52;;;;107837;1272;28035;-32
2022/05/20 02:12:51;;;;;;;8.20;5.50;;;;;;100635.58;;;;107778;1273;28776;-32
2022/05/20 02:15:30;;;;;;;8.20;4.90;;;;;;100633.23;;;;107837;1271;30989;-33
2022/05/20 02:18:02;;;;;;;7.90;4.70;;;;;;100629.73;;;;107832;1273;30220;-32
2022/05/20 02:20:48;;;;;;;7.10;4.80;;;;;;100634.55;;;;107859;1272;28713;-33
2022/05/20 02:23:22;;;;;;;8.20;5.80;;;;;;100637.91;;;;107850;1271;30510;-32
2022/05/20 02:25:53;;;;;;;8.10;5.00;;;;;;100639.06;;;;107821;1271;28523;-31
2022/05/20 02:28:26;;;;;;;7.20;5.00;;;;;;100642.52;;;;107850;1271;29339;-30
2022/05/20 02:30:53;;;;;;;6.60;4.60;;;;;;100641.26;;;;107818;1273;29535;-32
2022/05/20 02:33:23;;;;;;;7.70;4.60;;;;;;100641.72;;;;107799;1271;28607;-32
2022/05/20 02:35:51;;;;;;;6.90;4.50;;;;;;100639.36;;;;107816;1273;28696;-32
2022/05/20 02:38:22;;;;;;;6.90;4.50;;;;;;100639.42;;;;107811;1272;31036;-33
2022/05/20 02:40:52;;;;;;;6.90;4.80;;;;;;100638.10;;;;107817;1271;28657;-33
2022/05/20 02:43:21;;;;;;;6.90;5.00;;;;;;100637.26;;;;107824;1273;28790;-33
2022/05/20 02:45:50;;;;;;;8.20;4.90;;;;;;100637.96;;;;107825;1272;28650;-32
2022/05/20 02:48:19;;;;;;;7.30;4.40;;;;;;100634.27;;;;107831;1273;28681;-34
2022/05/20 02:50:46;;;;;;;7.70;5.00;;;;;;100626.55;;;;107860;1273;28666;-32
2022/05/20 02:53:13;;;;;;;6.90;4.30;;;;;;100619.86;;;;107824;1272;28018;-33
2022/05/20 02:55:39;;;;;;;7.90;4.80;;;;;;100622.02;;;;107826;1271;29217;-33
2022/05/20 02:58:06;;;;;;;6.10;4.60;;;;;;100620.93;;;;107814;1271;28103;-32
2022/05/20 03:06:03;;;;;;;6.90;4.40;;;;;;100624.73;;;;107828;1271;28517;-33
2022/05/20 03:08:30;;;;;;;6.60;4.60;;;;;;100620.84;;;;107831;1272;29355;-33
2022/05/20 03:10:57;;;;;;;7.00;4.90;;;;;;100616.95;;;;107803;1273;28595;-35
2022/05/20 03:13:23;;;;;;;6.00;4.30;;;;;;100614.65;;;;107827;1271;28003;-33
2022/05/20 03:15:50;;;;;;;6.90;4.50;;;;;;100609.70;;;;107785;1272;28709;-31
2022/05/20 03:18:17;;;;;;;6.20;3.80;;;;;;100606.16;;;;107809;1273;28632;-31
2022/05/20 03:20:43;;;;;;;7.90;4.80;;;;;;100607.08;;;;107815;1273;28609;-33
2022/05/20 03:23:10;;;;;;;5.80;4.20;;;;;;100605.21;;;;107827;1273;27492;-33
2022/05/20 03:25:38;;;;;;;6.40;4.40;;;;;;100606.67;;;;107799;1273;27828;-33
2022/05/20 03:28:05;;;;;;;5.50;4.20;;;;;;100604.19;;;;107823;1271;28673;-30
2022/05/20 03:30:32;;;;;;;6.70;4.50;;;;;;100602.29;;;;107819;1273;26153;-30
2022/05/20 03:32:59;;;;;;;5.90;4.00;;;;;;100601.11;;;;107817;1272;28769;-30
2022/05/20 03:35:25;;;;;;;6.10;4.20;;;;;;100610.76;;;;107808;1271;28614;-33
2022/05/20 03:37:52;;;;;;;7.20;4.10;;;;;;100605.52;;;;107814;1271;28811;-32
2022/05/20 03:40:20;;;;;;;7.60;4.20;;;;;;100603.52;;;;107817;1271;31092;-33
2022/05/20 03:42:47;;;;;;;7.20;4.10;;;;;;100596.40;;;;107829;1273;28687;-33
2022/05/20 03:45:14;;;;;;;6.80;4.10;;;;;;100593.29;;;;107857;1270;28238;-33
2022/05/20 03:47:40;;;;;;;5.90;3.90;;;;;;100591.39;;;;107798;1271;30829;-33
2022/05/20 03:50:08;;;;;;;7.10;4.10;;;;;;100595.04;;;;107779;1271;32417;-33
2022/05/20 03:52:34;;;;;;;6.00;4.00;;;;;;100602.73;;;;107832;1273;26076;-33
2022/05/20 03:55:02;;;;;;;5.80;4.00;;;;;;100595.15;;;;107807;1272;26128;-33
2022/05/20 03:57:29;;;;;;;6.90;4.50;;;;;;100589.71;;;;107814;1273;30988;-33
2022/05/20 03:59:56;;;;;;;6.50;3.70;;;;;;100588.48;;;;107836;1271;26974;-33
2022/05/20 04:02:22;;;;;;;6.00;3.90;;;;;;100589.42;;;;107789;1273;28585;-32
2022/05/20 04:04:52;;;;;;;6.50;3.70;;;;;;100592.35;;;;107809;1273;27763;-33
2022/05/20 04:07:24;;;;;;;6.50;3.60;;;;;;100590.30;;;;107819;1271;26883;-33
2022/05/20 04:09:51;;;;;;;6.30;3.90;;;;;;100594.63;;;;107802;1273;28337;-34
2022/05/20 04:12:26;;;;;;;5.60;3.70;;;;;;100595.39;;;;107783;1271;28728;-33
2022/05/20 04:14:54;;;;;;;5.70;3.70;;;;;;100590.48;;;;107844;1273;27958;-33
2022/05/20 04:17:22;;;;;;;6.30;3.60;;;;;;100592.54;;;;107840;1271;26109;-33
2022/05/20 04:19:49;;;;;;;6.20;3.90;;;;;;100591.09;;;;107845;1272;28712;-33
2022/05/20 04:22:20;;;;;;;5.50;3.80;;;;;;100593.64;;;;107817;1273;28633;-33
2022/05/20 04:24:47;;;;;;;6.50;3.90;;;;;;100597.48;;;;107827;1271;30874;-33
2022/05/20 04:27:15;;;;;;;7.20;3.70;;;;;;100592.41;;;;107803;1273;28683;-33
2022/05/20 04:29:42;;;;;;;6.40;3.80;;;;;;100587.98;;;;107814;1271;28606;-33
2022/05/20 04:32:10;;;;;;;5.80;3.90;;;;;;100581.66;;;;107836;1272;28732;-33
2022/05/20 04:34:37;;;;;;;5.50;3.70;;;;;;100578.73;;;;107850;1270;28667;-33
2022/05/20 04:37:04;;;;;;;6.00;4.10;;;;;;100583.27;;;;107808;1272;29946;-32
2022/05/20 04:39:31;;;;;;;6.00;3.50;;;;;;100582.82;;;;107824;1271;30412;-32
2022/05/20 04:47:31;;;;;;;6.50;3.60;;;;;;100555.83;;;;107784;1271;27556;-32
2022/05/20 04:49:59;;;;;;;5.00;3.10;;;;;;100566.08;;;;107849;1272;28545;-32
2022/05/20 04:52:25;;;;;;;5.50;3.70;;;;;;100578.33;;;;107823;1273;27258;-32
2022/05/20 04:54:52;;;;;;;6.00;3.40;;;;;;100574.66;;;;107805;1271;26110;-32
2022/05/20 04:57:36;;;;;;;5.30;3.50;;;;;;100567.55;;;;107892;1271;27341;-32
2022/05/20 05:00:28;;;;;;;7.70;3.40;;;;;;100568.39;;;;107831;1271;28782;-32
2022/05/20 05:02:55;;;;;;;6.20;3.30;;;;;;100571.20;;;;107803;1273;26825;-32
2022/05/20 05:05:26;;;;;;;5.20;3.40;;;;;;100572.84;;;;107829;1271;29093;-32
2022/05/20 05:07:55;;;;;;;6.40;3.50;;;;;;100570.58;;;;107819;1271;28707;-32
2022/05/20 05:10:25;;;;;;;6.00;3.60;;;;;;100566.56;;;;107854;1271;28632;-32
2022/05/20 05:12:52;;;;;;;7.20;3.90;;;;;;100568.67;;;;107840;1273;28774;-32
2022/05/20 05:15:20;;;;;;;7.00;4.00;;;;;;100567.11;;;;107797;1273;30303;-33
2022/05/20 05:20:33;;;;;;;7.80;4.20;;;;;;100580.98;;;;107806;1273;28504;-32
2022/05/20 05:23:00;;;;;;;6.60;3.70;;;;;;100581.81;;;;107823;1271;26212;-35
2022/05/20 05:25:34;;;;;;;7.50;3.50;;;;;;100582.00;;;;107653;1271;216883;-32
2022/05/20 05:28:01;;;;;;;7.00;3.70;;;;;;100583.14;;;;107831;1271;26781;-32
2022/05/20 05:30:30;;;;;;;5.40;3.60;;;;;;100580.84;;;;107844;1271;31042;-32
2022/05/20 05:32:57;;;;;;;6.70;3.90;;;;;;100582.77;;;;107829;1271;29890;-32
2022/05/20 05:35:26;;;;;;;6.70;3.40;;;;;;100584.91;;;;107825;1273;28638;-32
2022/05/20 05:37:53;;;;;;;5.90;3.50;;;;;;100591.91;;;;107852;1271;28637;-32
2022/05/20 05:40:25;;;;;;;6.40;3.80;;;;;;100589.52;;;;107832;1271;29840;-33
2022/05/20 05:42:52;;;;;;;6.20;3.10;;;;;;100582.98;;;;107786;1273;28676;-32
2022/05/20 05:45:22;;;;;;;5.90;3.20;;;;;;100576.92;;;;107798;1271;28638;-37
2022/05/20 05:47:54;;;;;;;6.70;3.50;;;;;;100573.95;;;;107840;1271;28698;-33
2022/05/20 05:50:21;;;;;;;7.50;3.30;;;;;;100579.21;;;;107670;1271;28321;-33
2022/05/20 05:53:10;;;;;;;6.30;3.00;;;;;;100590.67;;;;107759;1271;28742;-33
2022/05/20 05:55:37;;;;;;;5.60;2.60;;;;;;100586.89;;;;107862;1271;26406;-32
2022/05/20 05:58:04;;;;;;;5.50;2.70;;;;;;100585.23;;;;107812;1271;28703;-32
2022/05/20 06:00:31;;;;;;;6.60;3.20;;;;;;100579.86;;;;107809;1271;28004;-31
2022/05/20 06:02:57;;;;;;;6.20;2.60;;;;;;100582.77;;;;107792;1272;28123;-32
2022/05/20 06:05:24;;;;;;;5.10;3.20;;;;;;100589.19;;;;107820;1271;26060;-32
2022/05/20 06:07:51;;;;;;;6.50;2.70;;;;;;100590.15;;;;107875;1271;28454;-32
2022/05/20 06:10:19;;;;;;;5.80;2.30;;;;;;100585.09;;;;107841;1271;29207;-33
2022/05/20 06:12:45;;;;;;;4.80;2.40;;;;;;100580.48;;;;108008;1271;26011;-32
2022/05/20 06:15:16;;;;;;;4.90;2.40;;;;;;100574.75;;;;107841;1271;28660;-32
2022/05/20 06:17:43;;;;;;;4.40;2.30;;;;;;100571.64;;;;107756;1271;27381;-32
2022/05/20 06:20:12;;;;;;;4.10;2.40;;;;;;100565.43;;;;107924;1271;30766;-33
2022/05/20 06:22:38;;;;;;;5.80;2.70;;;;;;100564.19;;;;107838;1271;26832;-31
2022/05/20 06:25:06;;;;;;;6.00;2.60;;;;;;100561.88;;;;107923;1271;29311;-31
2022/05/20 06:27:33;;;;;;;6.20;2.40;;;;;;100561.21;;;;107867;1271;29224;-30
2022/05/20 06:30:00;;;;;;;5.50;2.30;;;;;;100557.28;;;;107751;1271;27069;-32
2022/05/20 06:32:26;;;;;;;4.30;2.10;;;;;;100556.33;;;;107923;1271;28526;-37
2022/05/20 06:40:24;;;;;;;5.00;2.20;;;;;;100556.49;;;;107822;1271;28504;-32
2022/05/20 06:42:50;;;;;;;5.80;2.60;;;;;;100561.41;;;;107777;1271;28649;-31
2022/05/20 06:45:17;;;;;;;6.00;2.20;;;;;;100562.43;;;;107759;1271;26029;-31
2022/05/20 06:47:44;;;;;;;5.30;2.30;;;;;;100554.98;;;;107868;1271;28594;-31
2022/05/20 06:50:12;;;;;;;6.00;2.30;;;;;;100553.61;;;;107771;1271;26062;-31
2022/05/20 06:52:39;;;;;;;5.20;2.00;;;;;;100554.75;;;;108026;1271;28105;-31
2022/05/20 06:55:08;;;;;;;5.50;2.10;;;;;;100556.81;;;;107794;1271;27621;-31
2022/05/20 06:57:39;;;;;;;5.70;1.80;;;;;;100555.27;;;;107820;1271;28462;-31
2022/05/20 07:00:11;;;;;;;4.40;1.90;;;;;;100553.30;;;;107910;1272;27346;-31
2022/05/20 07:02:39;;;;;;;3.30;1.70;;;;;;100557.60;;;;107862;1271;26084;-31
2022/05/20 07:05:08;;;;;;;4.70;2.00;;;;;;100556.02;;;;107929;1271;29344;-31
2022/05/20 07:07:36;;;;;;;5.90;2.50;;;;;;100555.09;;;;107860;1271;28699;-32
2022/05/20 07:10:06;;;;;;;5.60;2.30;;;;;;100554.16;;;;107848;1271;27026;-31
2022/05/20 07:12:33;;;;;;;6.80;2.40;;;;;;100552.48;;;;107957;1271;28601;-31
2022/05/20 07:15:00;;;;;;;5.90;2.00;;;;;;100553.09;;;;107693;1271;27988;-32
2022/05/20 07:17:28;;;;;;;3.70;2.10;;;;;;100554.35;;;;107768;1271;28613;-32
2022/05/20 07:19:54;;;;;;;5.00;1.90;;;;;;100556.45;;;;107795;1271;31021;-32
2022/05/20 07:22:21;;;;;;;5.20;2.40;;;;;;100558.84;;;;107781;1273;28610;-32
2022/05/20 07:24:48;;;;;;;4.10;2.00;;;;;;100560.38;;;;107799;1273;28620;-32
2022/05/20 07:27:15;;;;;;;4.10;2.00;;;;;;100555.63;;;;107757;1273;27275;-32
2022/05/20 07:29:42;;;;;;;4.40;1.90;;;;;;100555.46;;;;107769;1273;28749;-31
2022/05/20 07:32:08;;;;;;;4.80;2.10;;;;;;100557.96;;;;107731;1273;26083;-32
2022/05/20 07:34:35;;;;;;;4.80;1.70;;;;;;100557.96;;;;107738;1273;28796;-30
2022/05/20 07:37:04;;;;;;;7.20;2.50;;;;;;100553.01;;;;107762;1273;30214;-32
2022/05/20 07:39:31;;;;;;;6.50;2.70;;;;;;100552.77;;;;107770;1274;25991;-31
2022/05/20 07:41:57;;;;;;;5.60;2.20;;;;;;100557.20;;;;107839;1273;29312;-32
2022/05/20 07:44:24;;;;;;;5.40;2.40;;;;;;100557.63;;;;107836;1273;30409;-33
2022/05/20 07:46:50;;;;;;;4.60;2.40;;;;;;100559.96;;;;107787;1273;28681;-32
2022/05/20 07:49:17;;;;;;;5.00;2.40;;;;;;100558.75;;;;107843;1271;28638;-32
2022/05/20 07:51:47;;;;;;;4.40;2.30;;;;;;100558.50;;;;107800;1271;30403;-32
2022/05/20 07:54:25;;;;;;;4.40;2.20;;;;;;100556.30;;;;107773;1271;31008;-33
2022/05/20 07:57:00;;;;;;;4.30;2.10;;;;;;100552.16;;;;107706;1271;30995;-33
2022/05/20 07:59:30;;;;;;;4.10;2.10;;;;;;100549.30;;;;109680;1271;26367;-33
2022/05/20 08:01:59;;;;;;;6.00;2.40;;;;;;100545.52;;;;109687;1269;26199;-33
2022/05/20 08:04:53;;;;;;;5.60;2.30;;;;;;100542.73;;;;109688;1271;26090;-33
2022/05/20 08:07:21;;;;;;;;;;;;;;100545.30;;;;109711;1271;28779;-33
2022/05/20 08:09:47;;;;;;;5.10;2.30;;;;;;100542.50;;;;108590;1271;28758;-33
2022/05/20 08:12:14;;;;;;;6.20;2.40;;;;;;100536.61;;;;107674;1271;28129;-33
2022/05/20 08:14:40;;;;;;;6.50;2.60;;;;;;100537.31;;;;107799;1271;27633;-32
2022/05/20 08:17:07;;;;;;;5.40;2.70;;;;;;100532.49;;;;107826;1271;26531;-32
2022/05/20 08:19:34;;;;;;;7.00;3.00;;;;;;100530.16;;;;107853;1271;28246;-32
2022/05/20 08:22:01;;;;;;;5.80;2.90;;;;;;100530.05;;;;107796;1271;29554;-32
2022/05/20 08:24:28;;;;;;;4.50;2.50;;;;;;100532.48;;;;107831;1271;26136;-32
2022/05/20 08:26:54;;;;;;;5.60;3.30;;;;;;100527.89;;;;107842;1271;29135;-32
2022/05/20 08:29:21;;;;;;;4.80;2.40;;;;;;100526.52;;;;107797;1271;28648;-32
2022/05/20 08:31:48;;;;;;;5.70;2.80;;;;;;100527.05;;;;107812;1271;30899;-32
2022/05/20 08:34:14;;;;;;;4.30;2.50;;;;;;100521.41;;;;107816;1271;28764;-32
2022/05/20 08:36:42;;;;;;;4.20;2.70;;;;;;100521.55;;;;107795;1272;25962;-32
2022/05/20 08:39:12;;;;;;;5.30;2.90;;;;;;100519.09;;;;107841;1271;28650;-33
2022/05/20 08:41:50;;;;;;;6.30;3.40;;;;;;100520.37;;;;107774;1271;28730;-33
2022/05/20 08:44:20;;;;;;;6.10;2.90;;;;;;100516.59;;;;107812;1271;28794;-33
2022/05/20 08:46:48;;;;;;;4.70;2.80;;;;;;100516.39;;;;107806;1271;28995;-32
2022/05/20 08:49:25;;;;;;;6.60;2.80;;;;;;100511.98;;;;107800;1271;28624;-32
2022/05/20 08:51:53;;;;;;;5.10;2.90;;;;;;100507.67;;;;107784;1273;27366;-32
2022/05/20 08:54:20;;;;;;;6.00;2.90;;;;;;100504.52;;;;107819;1274;26200;-31
2022/05/20 08:56:48;;;;;;;4.70;2.70;;;;;;100500.40;;;;107759;1271;28781;-30
2022/05/20 08:59:20;;;;;;;4.70;2.90;;;;;;100501.23;;;;107746;1271;26628;-31
2022/05/20 09:01:50;;;;;;;4.10;2.70;;;;;;100494.91;;;;107784;1275;28772;-31
2022/05/20 09:04:25;;;;;;;8.20;3.20;;;;;;100495.40;;;;107795;1273;28683;-30
2022/05/20 09:07:01;;;;;;;6.80;3.80;;;;;;100495.99;;;;107785;1271;28662;-30
2022/05/20 09:09:54;;;;;;;4.00;2.70;;;;;;100496.90;;;;107872;1271;28687;-31
2022/05/20 09:12:35;;;;;;;5.60;3.20;;;;;;100499.38;;;;107775;1271;26165;-33
2022/05/20 09:18:20;;;;;;;4.00;2.20;;;;;;100491.85;;;;107794;1272;26021;-32
2022/05/20 09:20:51;;;;;;;4.20;2.70;;;;;;100493.04;;;;107770;1271;29339;-32
2022/05/20 09:23:20;;;;;;;4.90;2.50;;;;;;100496.06;;;;107981;1271;28470;-33
2022/05/20 09:26:01;;;;;;;7.20;3.20;;;;;;100493.24;;;;107887;1271;28966;-32
2022/05/20 09:28:45;;;;;;;4.00;2.60;;;;;;100493.10;;;;107805;1274;26573;-31
2022/05/20 09:31:49;;;;;;;4.50;2.50;;;;;;100492.05;;;;107836;1271;28746;-31
2022/05/20 09:34:31;;;;;;;5.30;2.60;;;;;;100494.01;;;;107894;1271;26069;-31
2022/05/20 09:37:14;;;;;;;5.80;2.80;;;;;;100490.70;;;;107798;1272;29997;-31
2022/05/20 09:39:44;;;;;;;5.50;2.40;;;;;;100491.16;;;;107823;1271;26176;-28
2022/05/20 09:42:19;;;;;;;5.90;3.20;;;;;;100486.73;;;;107886;1271;28623;-31
2022/05/20 09:44:58;;;;;;;4.20;2.50;;;;;;100486.10;;;;107827;1271;30757;-31
2022/05/20 09:47:52;;;;;;;4.50;2.70;;;;;;100480.16;;;;107899;1271;26204;-29
2022/05/20 09:50:34;;;;;;;4.90;2.60;;;;;;100476.55;;;;107819;1271;30895;-30
2022/05/20 09:53:11;;;;;;;4.90;2.70;;;;;;100473.31;;;;107903;1271;28671;-30
2022/05/20 09:55:44;;;;;;;4.60;2.50;;;;;;100471.21;;;;107880;1271;28482;-29
2022/05/20 09:58:15;;;;;;;5.00;2.60;;;;;;100469.34;;;;107907;1272;28076;-30
2022/05/20 10:00:54;;;;;;;6.60;3.50;;;;;;100465.04;;;;107853;1271;26038;-30
2022/05/20 10:03:35;;;;;;;4.20;2.80;;;;;;100463.33;;;;107843;1271;30524;-31
2022/05/20 10:06:23;;;;;;;5.20;3.30;;;;;;100457.19;;;;107874;1271;27091;-30
2022/05/20 10:09:11;;;;;;;4.50;2.80;;;;;;100460.19;;;;107884;1271;28588;-32
2022/05/20 10:11:47;;;;;;;6.70;3.20;;;;;;100457.00;;;;107838;1271;26417;-31
2022/05/20 10:14:19;;;;;;;5.30;3.10;;;;;;100443.16;;;;107797;1271;26021;-31
2022/05/20 10:17:04;;;;;;;4.50;3.10;;;;;;100442.48;;;;107904;1270;28754;-32
2022/05/20 10:19:54;;;;;;;5.90;3.80;;;;;;100439.72;;;;107872;1270;28107;-33
2022/05/20 10:22:39;;;;;;;4.60;3.40;;;;;;100440.51;;;;107840;1271;27829;-31
2022/05/20 10:25:17;;;;;;;4.80;3.10;;;;;;100441.96;;;;107919;1271;28096;-32
2022/05/20 10:27:58;;;;;;;5.60;3.50;;;;;;100441.77;;;;107858;1271;26210;-33
2022/05/20 10:33:32;;;;;;;5.10;3.00;;;;;;100435.11;;;;107824;1271;26865;-29
2022/05/20 10:36:29;;;;;;;5.40;3.30;;;;;;100432.87;;;;107810;1271;28662;-29
2022/05/20 10:38:59;;;;;;;7.70;3.00;;;;;;100434.95;;;;107888;1271;26080;-30
2022/05/20 10:41:33;;;;;;;4.90;2.80;;;;;;100430.33;;;;107811;1271;28719;-29
2022/05/20 10:50:29;;;;;;;4.80;2.50;;;;;;100412.63;;;;107793;1271;28007;-30
2022/05/20 10:53:28;;;;;;;4.70;2.70;;;;;;100410.42;;;;107869;1271;28733;-30
2022/05/20 10:56:29;;;;;;;4.20;2.60;;;;;;100408.23;;;;107825;1271;27353;-31
2022/05/20 10:59:36;;;;;;;4.50;2.20;;;;;;100395.44;;;;107870;1271;27737;-31
2022/05/20 11:02:30;;;;;;;4.70;3.10;;;;;;100397.09;;;;107800;1271;28759;-30
2022/05/20 11:05:56;;;;;;;5.20;3.00;;;;;;100397.48;;;;107846;1271;30804;-30
2022/05/20 11:09:00;;;;;;;5.80;3.10;;;;;;100397.00;;;;107911;1271;28739;-30
2022/05/20 11:11:55;;;;;;;5.40;2.70;;;;;;100389.25;;;;107801;1271;27460;-31
2022/05/20 11:14:27;;;;;;;4.90;3.40;;;;;;100393.55;;;;107795;1271;28771;-31
2022/05/20 11:17:34;;;;;;;5.00;2.50;;;;;;100392.60;;;;107897;1271;27244;-31
2022/05/20 11:20:32;;;;;;;5.20;2.40;;;;;;100385.96;;;;107944;1271;27238;-31
2022/05/20 11:23:39;;;;;;;5.60;2.80;;;;;;100392.80;;;;107744;1271;26115;-31
2022/05/20 11:26:36;;;;;;;4.40;2.50;;;;;;100383.35;;;;107910;1271;29296;-32
2022/05/20 11:30:03;;;;;;;5.30;2.50;;;;;;100380.34;;;;107836;1271;28487;-32
2022/05/20 11:33:17;;;;;;;5.10;2.10;;;;;;100379.85;;;;107616;1277;28422;-32
2022/05/20 11:36:35;;;;;;;7.20;3.00;;;;;;100379.23;;;;107822;1271;28076;-31
2022/05/20 11:39:40;;;;;;;4.20;2.50;;;;;;100379.95;;;;107834;1272;27586;-31
2022/05/20 11:42:24;;;;;;;4.80;2.40;;;;;;100376.31;;;;107790;1271;27744;-32
2022/05/20 11:45:13;;;;;;;5.30;2.40;;;;;;100380.25;;;;107864;1271;29625;-31
2022/05/20 11:48:25;;;;;;;4.00;2.40;;;;;;100382.79;;;;107807;1271;31041;-31
2022/05/20 11:51:13;;;;;;;5.50;2.10;;;;;;100377.35;;;;107822;1274;30747;-29
2022/05/20 11:54:19;;;;;;;4.80;2.30;;;;;;100370.21;;;;107793;1271;31005;-30
2022/05/20 11:56:56;;;;;;;5.30;2.90;;;;;;100366.69;;;;107793;1271;26147;-30
2022/05/20 11:59:39;;;;;;;4.60;2.10;;;;;;100367.52;;;;107828;1271;28723;-31
2022/05/20 12:02:10;;;;;;;5.00;2.30;;;;;;100362.25;;;;107887;1271;26351;-30
2022/05/20 12:04:39;;;;;;;4.50;2.20;;;;;;100357.22;;;;107815;1271;26869;-30
2022/05/20 12:07:10;;;;;;;5.80;3.10;;;;;;100349.85;;;;107736;1274;28741;-29
2022/05/20 12:09:45;;;;;;;4.90;2.40;;;;;;100349.33;;;;107807;1271;26128;-29
2022/05/20 12:12:15;;;;;;;3.40;1.90;;;;;;100347.40;;;;107822;1271;31032;-29
2022/05/20 12:14:54;;;;;;;4.50;2.60;;;;;;100354.16;;;;107742;1271;28517;-30
2022/05/20 12:17:43;;;;;;;5.60;2.20;;;;;;100355.85;;;;107836;1271;28694;-30
2022/05/20 12:25:59;;;;;;;6.80;2.10;;;;;;100344.44;;;;107820;1271;28800;-29
2022/05/20 12:28:26;;;;;;;4.10;2.20;;;;;;100341.62;;;;107799;1272;28685;-31
2022/05/20 12:31:15;;;;;;;4.80;2.20;;;;;;100342.13;;;;107904;1271;30499;-31
2022/05/20 12:34:03;;;;;;;5.40;2.60;;;;;;100347.13;;;;107909;1271;28700;-32
2022/05/20 12:36:30;;;;;;;10.10;2.80;;;;;;100344.92;;;;107738;1274;29378;-32
2022/05/20 12:39:14;;;;;;;4.90;2.50;;;;;;100341.54;;;;107891;1271;29872;-32
2022/05/20 12:41:47;;;;;;;8.20;2.60;;;;;;100340.85;;;;107913;1271;26124;-30
2022/05/20 12:44:17;;;;;;;5.00;2.70;;;;;;100345.34;;;;107878;1271;29839;-29
2022/05/20 12:47:08;;;;;;;6.10;2.50;;;;;;100346.77;;;;107874;1271;26082;-29
2022/05/20 12:49:38;;;;;;;4.10;2.20;;;;;;100352.35;;;;107887;1271;28648;-29
2022/05/20 12:52:17;;;;;;;5.60;2.70;;;;;;100348.17;;;;107792;1271;30852;-29
2022/05/20 12:54:48;;;;;;;5.60;2.50;;;;;;100345.77;;;;107779;1271;28754;-30
2022/05/20 12:57:26;;;;;;;5.40;2.30;;;;;;100337.13;;;;107771;1271;28509;-30
2022/05/20 13:00:03;;;;;;;5.10;2.50;;;;;;100343.40;;;;107839;1271;30903;-30
2022/05/20 13:02:37;;;;;;;5.60;2.60;;;;;;100343.09;;;;107765;1271;28565;-30
2022/05/20 13:05:20;;;;;;;6.40;2.40;;;;;;100342.98;;;;107895;1271;28850;-30
2022/05/20 13:07:48;;;;;;;5.40;2.70;;;;;;100340.20;;;;107934;1271;30843;-30
2022/05/20 13:10:31;;;;;;;5.10;2.30;;;;;;100337.56;;;;107878;1271;27097;-30
2022/05/20 13:13:07;;;;;;;4.90;2.30;;;;;;100342.58;;;;107805;1271;28658;-30
2022/05/20 13:15:50;;;;;;;7.10;2.40;;;;;;100346.73;;;;107870;1271;26099;-30
2022/05/20 13:18:24;;;;;;;5.40;2.50;;;;;;100336.63;;;;107795;1270;28675;-30
2022/05/20 13:20:52;;;;;;;;;;;;;;100341.90;;;;107900;1271;27006;-30
2022/05/20 13:23:30;;;;;;;4.80;2.20;;;;;;100343.48;;;;107798;1271;30732;-30
2022/05/20 13:25:56;;;;;;;6.20;2.50;;;;;;100348.67;;;;107672;1271;314695;-30
2022/05/20 13:28:36;;;;;;;6.20;2.60;;;;;;100342.40;;;;107777;1273;27246;-30
2022/05/20 13:31:06;;;;;;;5.80;3.10;;;;;;100341.45;;;;107875;1271;27529;-29
2022/05/20 13:33:36;;;;;;;4.40;2.50;;;;;;100343.79;;;;107877;1271;26223;-29
2022/05/20 13:36:05;;;;;;;6.30;2.50;;;;;;100341.21;;;;107829;1271;30716;-28
2022/05/20 13:38:40;;;;;;;5.00;2.20;;;;;;100342.66;;;;107892;1271;29274;-29
2022/05/20 13:41:07;;;;;;;5.40;2.10;;;;;;100340.00;;;;107842;1271;28636;-29
2022/05/20 13:43:38;;;;;;;9.60;3.50;;;;;;100337.11;;;;107832;1271;28649;-29
2022/05/20 13:49:15;;;;;;;6.60;2.20;;;;;;100337.42;;;;107897;1271;28578;-29
2022/05/20 13:51:49;;;;;;;5.10;2.00;;;;;;100341.64;;;;107800;1271;28038;-29
2022/05/20 13:54:38;;;;;;;5.00;2.00;;;;;;100339.52;;;;107815;1271;26035;-29
2022/05/20 13:57:07;;;;;;;6.20;1.90;;;;;;100333.70;;;;107835;1271;28776;-29
2022/05/20 13:59:39;;;;;;;8.00;2.30;;;;;;100326.75;;;;107962;1271;29297;-29
2022/05/20 14:02:08;;;;;;;7.00;2.20;;;;;;100329.56;;;;107963;1271;30683;-29
2022/05/20 14:04:53;;;;;;;4.50;1.80;;;;;;100332.91;;;;107814;1271;26041;-30